Nearby METAR Reports

 

EGQL - Leuchars Raf, United Kingdom
Distance from station: SW 17km
Updated: 02/12/2021 05:50
Clear
Clear
 Wind from NW
Wind: NW 7 mph , 11 km/h
Temperature: 2°C
Wind Chill: -1°C
Dew Point: -3°C
Humidity: 70%
Barometer: 1010 hPa
Summary: Clear
Visibility: greater than 7 miles , 10 km
2021/12/02 04:50 EGQL 020450Z 31006KT CAVOK 02/M03 Q1010 RMK BLU
EGPN - Dundee/Riverside, United Kingdom
Distance from station: WSW 20km
Updated: 01/12/2021 21:50
NOT Current
Few Clouds
Few Clouds
 Wind from W
Wind: W 7 mph , 11 km/h
Temperature: 3°C
Wind Chill: 0°C
Dew Point: -1°C
Humidity: 75%
Barometer: 1007 hPa
Clouds: Few Clouds
Visibility: 6 miles , 10 km
Cloud details: Few Clouds 1372 m
2021/12/01 20:50 EGPN 012050Z 28006KT 9999 FEW045 03/M01 Q1007
 
EGPH - Edinburgh Airpor, United Kingdom
Distance from station: SSW 74km
Updated: 02/12/2021 06:20
Few Clouds
Few Clouds
 Wind from W
Wind: W 5 mph , 7 km/h
Temperature: 0°C
Wind Chill: -3°C
Dew Point: -5°C
Humidity: 69%
Barometer: 1012 hPa
Clouds: Few Clouds
Visibility: 6 miles , 10 km
Cloud details: Few Clouds 1158 m
2021/12/02 05:20 EGPH 020520Z 28004KT 240V340 9999 FEW038 00/M05 Q1012
EGPD - Aberdeen/Dyce, United Kingdom
Distance from station: NNE 82km
Updated: 02/12/2021 06:20
Mostly cloudy
Mostly cloudy
 Wind from NW
Wind: NW 16 mph , 26 km/h
Temperature: 2°C
Wind Chill: -3°C
Dew Point: -2°C
Humidity: 75%
Barometer: 1009 hPa
Clouds: Mostly cloudy
Visibility: 6 miles , 10 km
Cloud details: Mostly cloudy 1158 m
Mostly cloudy 1341 m
2021/12/02 05:20 EGPD 020520Z AUTO 31014KT 9999 BKN038 BKN044 02/M02 Q1009 TEMPO 4000 -SHRASN BKN014